PWSweather.com
Personal Weather Stations
Station Observations
WATERF01
WaterfordIE

WaterfordIE

Lat: 52.2412507, Lon: -7.1414691

Elevation: 65

Station Type: Davis Vantage Vue

www.waterfordweather.com

High Low Average
Temperature 0.0°F0.0°F 0.0°F0.0°F 0.0°F0.0°F
Dew Point 0.0°F0.0°F 0.0°F0.0°F 0.0°F0.0°F
Winds Calm -Calm - Calm Calm Calm Calm
Wind Gusts -- -- --
Humidity 0% 0% 0%
Pressure 0.00 in0.00 in 0.00 in0.00 in -
Precipitation 0.00 in0.0 mm - -
Hour Temp Dew Point Humidity Winds Wind Gusts Pressure Precip Precip Rate Daily Precip Total
12:00 AM 39.6°F4.2°C 37.7°F3.2°C 93% Calm Calm -- 29.84 in1010.5 mb - 0.00 in0.0 mm 0.00 in0.0 mm
12:10 AM 39.9°F4.4°C 38.3°F3.5°C 94% 4.6 mph S7.4 kmh S 5.8 mph9.3 kmh 29.84 in1010.5 mb - 0.00 in0.0 mm 0.00 in0.0 mm
12:20 AM 40.6°F4.8°C 38.7°F3.7°C 93% Calm Calm -- 29.84 in1010.5 mb - 0.00 in0.0 mm 0.00 in0.0 mm
12:30 AM 40.8°F4.9°C 38.9°F3.8°C 93% 2.3 mph SW3.7 kmh SW 4.6 mph7.4 kmh 29.84 in1010.5 mb - 0.00 in0.0 mm 0.00 in0.0 mm
12:40 AM 40.6°F4.8°C 38.7°F3.7°C 93% Calm Calm -- 29.84 in1010.5 mb - 0.00 in0.0 mm 0.00 in0.0 mm
12:50 AM 40.3°F4.6°C 38.4°F3.6°C 93% 1.2 mph S1.9 kmh S 4.6 mph7.4 kmh 29.84 in1010.5 mb - 0.00 in0.0 mm 0.00 in0.0 mm
01:00 AM 40.5°F4.7°C 38.9°F3.8°C 94% 1.2 mph SSW1.9 kmh SSW 2.3 mph3.7 kmh 29.84 in1010.5 mb - 0.00 in0.0 mm 0.00 in0.0 mm
01:10 AM 40.7°F4.8°C 39.2°F4.0°C 94% Calm Calm -- 29.84 in1010.5 mb - 0.00 in0.0 mm 0.00 in0.0 mm
01:20 AM 40.9°F4.9°C 39.3°F4.1°C 94% Calm Calm -- 29.83 in1010.2 mb - 0.00 in0.0 mm 0.00 in0.0 mm
01:30 AM 41.2°F5.1°C 39.6°F4.2°C 94% Calm Calm -- 29.82 in1009.8 mb - 0.00 in0.0 mm 0.00 in0.0 mm
01:40 AM 41.5°F5.3°C 39.9°F4.4°C 94% Calm Calm -- 29.82 in1009.8 mb - 0.00 in0.0 mm 0.00 in0.0 mm
01:50 AM 41.5°F5.3°C 39.9°F4.4°C 94% Calm Calm -- 29.81 in1009.5 mb - 0.00 in0.0 mm 0.00 in0.0 mm
02:00 AM 41.7°F5.4°C 40.1°F4.5°C 94% 1.2 mph SE1.9 kmh SE 4.6 mph7.4 kmh 29.80 in1009.1 mb - 0.00 in0.0 mm 0.00 in0.0 mm
02:10 AM 42.1°F5.6°C 40.5°F4.7°C 94% Calm Calm -- 29.80 in1009.1 mb - 0.00 in0.0 mm 0.00 in0.0 mm
02:20 AM 42.1°F5.6°C 40.5°F4.7°C 94% Calm Calm -- 29.80 in1009.1 mb - 0.00 in0.0 mm 0.00 in0.0 mm
02:30 AM 42.0°F5.6°C 40.4°F4.7°C 94% Calm Calm -- 29.80 in1009.1 mb - 0.00 in0.0 mm 0.00 in0.0 mm
02:40 AM 41.8°F5.4°C 40.2°F4.6°C 94% Calm Calm -- 29.80 in1009.1 mb - 0.00 in0.0 mm 0.00 in0.0 mm
02:50 AM 41.5°F5.3°C 39.9°F4.4°C 94% Calm Calm -- 29.77 in1008.1 mb - 0.00 in0.0 mm 0.00 in0.0 mm
03:00 AM 41.5°F5.3°C 39.9°F4.4°C 94% Calm Calm -- 29.78 in1008.5 mb - 0.00 in0.0 mm 0.00 in0.0 mm
03:10 AM 41.7°F5.4°C 40.1°F4.5°C 94% Calm Calm -- 29.75 in1007.5 mb - 0.00 in0.0 mm 0.00 in0.0 mm
03:20 AM 41.8°F5.4°C 40.2°F4.6°C 94% 1.2 mph ESE1.9 kmh ESE 5.8 mph9.3 kmh 29.73 in1006.8 mb - 0.00 in0.0 mm 0.00 in0.0 mm
03:30 AM 43.7°F6.5°C 42.4°F5.8°C 95% 4.6 mph SSW7.4 kmh SSW 11.5 mph18.5 kmh 29.73 in1006.8 mb - 0.00 in0.0 mm 0.00 in0.0 mm
03:40 AM 45.6°F7.6°C 44.3°F6.8°C 95% 4.6 mph SSW7.4 kmh SSW 8.1 mph13.0 kmh 29.74 in1007.1 mb - 0.00 in0.0 mm 0.00 in0.0 mm
03:50 AM 46.3°F7.9°C 45.0°F7.2°C 95% 5.8 mph SW9.3 kmh SW 11.5 mph18.5 kmh 29.74 in1007.1 mb - 0.00 in0.0 mm 0.00 in0.0 mm
04:00 AM 46.8°F8.2°C 45.2°F7.3°C 94% 8.1 mph SW13.0 kmh SW 13.8 mph22.2 kmh 29.74 in1007.1 mb - 0.00 in0.0 mm 0.00 in0.0 mm
04:10 AM 47.2°F8.4°C 45.6°F7.6°C 94% 9.2 mph SSW14.8 kmh SSW 13.8 mph22.2 kmh 29.73 in1006.8 mb - 0.00 in0.0 mm 0.00 in0.0 mm
04:20 AM 47.6°F8.7°C 46.0°F7.8°C 94% 9.2 mph SSW14.8 kmh SSW 13.8 mph22.2 kmh 29.71 in1006.1 mb - 0.00 in0.0 mm 0.00 in0.0 mm
04:30 AM 47.7°F8.7°C 46.1°F7.8°C 94% 9.2 mph S14.8 kmh S 16.1 mph25.9 kmh 29.70 in1005.8 mb - 0.00 in0.0 mm 0.00 in0.0 mm
04:40 AM 46.3°F7.9°C 44.9°F7.2°C 95% 10.4 mph WSW16.7 kmh WSW 16.1 mph25.9 kmh 29.70 in1005.8 mb - 0.00 in0.0 mm 0.00 in0.0 mm
04:50 AM 45.8°F7.7°C 44.7°F7.1°C 96% 13.8 mph S22.2 kmh S 21.9 mph35.2 kmh 29.67 in1004.7 mb - 0.00 in0.0 mm 0.00 in0.0 mm
05:00 AM 46.1°F7.8°C 45.1°F7.3°C 96% 9.2 mph S14.8 kmh S 13.8 mph22.2 kmh 29.67 in1004.7 mb - 0.01 in0.3 mm 0.01 in0.3 mm
05:10 AM 46.3°F7.9°C 45.2°F7.3°C 96% 8.1 mph SW13.0 kmh SW 8.1 mph13.0 kmh 29.66 in1004.4 mb - 0.00 in0.0 mm 0.01 in0.3 mm
05:20 AM 46.5°F8.1°C 45.4°F7.4°C 96% 9.2 mph SSW14.8 kmh SSW 15.0 mph24.1 kmh 29.66 in1004.4 mb - 0.00 in0.0 mm 0.01 in0.3 mm
05:30 AM 46.5°F8.1°C 45.4°F7.4°C 96% 11.5 mph WSW18.5 kmh WSW 19.6 mph31.5 kmh 29.67 in1004.7 mb - 0.01 in0.3 mm 0.02 in0.5 mm
05:40 AM 46.7°F8.2°C 45.6°F7.6°C 96% 9.2 mph SW14.8 kmh SW 15.0 mph24.1 kmh 29.67 in1004.7 mb - 0.02 in0.5 mm 0.03 in0.8 mm
05:50 AM 46.8°F8.2°C 45.7°F7.6°C 96% 10.4 mph WSW16.7 kmh WSW 16.1 mph25.9 kmh 29.65 in1004.1 mb - 0.05 in1.3 mm 0.08 in2.0 mm
06:00 AM 47.0°F8.3°C 46.2°F7.9°C 97% 11.5 mph WSW18.5 kmh WSW 19.6 mph31.5 kmh 29.65 in1004.1 mb - 0.04 in1.0 mm 0.11 in2.8 mm
06:10 AM 47.2°F8.4°C 46.4°F8.0°C 97% 11.5 mph SW18.5 kmh SW 13.8 mph22.2 kmh 29.65 in1004.1 mb - 0.04 in1.0 mm 0.14 in3.6 mm
06:20 AM 47.1°F8.4°C 46.3°F7.9°C 97% 12.7 mph WSW20.4 kmh WSW 19.6 mph31.5 kmh 29.63 in1003.4 mb - 0.04 in1.0 mm 0.17 in4.3 mm
06:30 AM 47.2°F8.4°C 46.4°F8.0°C 97% 10.4 mph SW16.7 kmh SW 16.1 mph25.9 kmh 29.63 in1003.4 mb - 0.03 in0.8 mm 0.19 in4.8 mm
06:40 AM 47.2°F8.4°C 46.4°F8.0°C 97% 11.5 mph WSW18.5 kmh WSW 13.8 mph22.2 kmh 29.61 in1002.7 mb - 0.00 in0.0 mm 0.19 in4.8 mm
06:50 AM 47.3°F8.5°C 46.5°F8.1°C 97% 11.5 mph SW18.5 kmh SW 16.1 mph25.9 kmh 29.61 in1002.7 mb - 0.00 in0.0 mm 0.19 in4.8 mm
07:00 AM 47.3°F8.5°C 46.5°F8.1°C 97% 15.0 mph SSW24.1 kmh SSW 19.6 mph31.5 kmh 29.58 in1001.7 mb - 0.00 in0.0 mm 0.19 in4.8 mm
07:10 AM 47.5°F8.6°C 46.7°F8.2°C 97% 16.1 mph SW25.9 kmh SW 23.0 mph37.0 kmh 29.58 in1001.7 mb - 0.01 in0.3 mm 0.20 in5.1 mm
07:20 AM 47.6°F8.7°C 46.8°F8.2°C 97% 13.8 mph SW22.2 kmh SW 17.3 mph27.8 kmh 29.56 in1001.0 mb - 0.01 in0.3 mm 0.20 in5.1 mm
07:30 AM 47.8°F8.8°C 47.0°F8.3°C 97% 13.8 mph SSW22.2 kmh SSW 19.6 mph31.5 kmh 29.57 in1001.4 mb - 0.00 in0.0 mm 0.20 in5.1 mm
07:40 AM 48.0°F8.9°C 47.2°F8.4°C 97% 12.7 mph SW20.4 kmh SW 21.9 mph35.2 kmh 29.56 in1001.0 mb - 0.00 in0.0 mm 0.20 in5.1 mm
07:50 AM 48.3°F9.1°C 47.5°F8.6°C 97% 11.5 mph SW18.5 kmh SW 19.6 mph31.5 kmh 29.57 in1001.4 mb - 0.00 in0.0 mm 0.20 in5.1 mm
08:00 AM 48.4°F9.1°C 47.6°F8.7°C 97% 10.4 mph SSW16.7 kmh SSW 15.0 mph24.1 kmh 29.56 in1001.0 mb - 0.02 in0.5 mm 0.22 in5.6 mm
08:10 AM 48.6°F9.2°C 47.8°F8.8°C 97% 8.1 mph WSW13.0 kmh WSW 13.8 mph22.2 kmh 29.56 in1001.0 mb - 0.00 in0.0 mm 0.22 in5.6 mm
08:20 AM 48.8°F9.3°C 48.0°F8.9°C 97% 5.8 mph WSW9.3 kmh WSW 9.2 mph14.8 kmh 29.55 in1000.7 mb - 0.00 in0.0 mm 0.22 in5.6 mm
08:30 AM 49.2°F9.6°C 48.4°F9.1°C 97% 5.8 mph WNW9.3 kmh WNW 9.2 mph14.8 kmh 29.54 in1000.3 mb - 0.00 in0.0 mm 0.22 in5.6 mm
08:40 AM 50.0°F10.0°C 49.2°F9.6°C 97% 5.8 mph W9.3 kmh W 13.8 mph22.2 kmh 29.54 in1000.3 mb - 0.00 in0.0 mm 0.22 in5.6 mm
08:50 AM 50.0°F10.0°C 49.2°F9.6°C 97% 5.8 mph WNW9.3 kmh WNW 13.8 mph22.2 kmh 29.55 in1000.7 mb - 0.00 in0.0 mm 0.22 in5.6 mm
09:00 AM 49.5°F9.7°C 48.7°F9.3°C 97% 4.6 mph W7.4 kmh W 8.1 mph13.0 kmh 29.54 in1000.3 mb - 0.00 in0.0 mm 0.22 in5.6 mm
09:10 AM 48.9°F9.4°C 48.1°F8.9°C 97% 4.6 mph WNW7.4 kmh WNW 11.5 mph18.5 kmh 29.56 in1001.0 mb - 0.00 in0.0 mm 0.22 in5.6 mm
09:20 AM 48.3°F9.1°C 47.5°F8.6°C 97% 5.8 mph WNW9.3 kmh WNW 9.2 mph14.8 kmh 29.56 in1001.0 mb - 0.00 in0.0 mm 0.22 in5.6 mm
09:30 AM 48.0°F8.9°C 47.2°F8.4°C 97% 4.6 mph WNW7.4 kmh WNW 8.1 mph13.0 kmh 29.57 in1001.4 mb - 0.00 in0.0 mm 0.22 in5.6 mm
09:40 AM 48.0°F8.9°C 47.2°F8.4°C 97% 4.6 mph WNW7.4 kmh WNW 8.1 mph13.0 kmh 29.56 in1001.0 mb - 0.00 in0.0 mm 0.22 in5.6 mm
09:50 AM 48.7°F9.3°C 47.8°F8.8°C 97% 2.3 mph W3.7 kmh W 5.8 mph9.3 kmh 29.57 in1001.4 mb - 0.00 in0.0 mm 0.22 in5.6 mm
10:00 AM 49.2°F9.6°C 48.4°F9.1°C 97% 5.8 mph WNW9.3 kmh WNW 11.5 mph18.5 kmh 29.57 in1001.4 mb - 0.00 in0.0 mm 0.22 in5.6 mm
10:10 AM 49.5°F9.7°C 48.4°F9.1°C 96% 2.3 mph WNW3.7 kmh WNW 5.8 mph9.3 kmh 29.57 in1001.4 mb - 0.00 in0.0 mm 0.22 in5.6 mm
10:20 AM 49.7°F9.8°C 48.3°F9.1°C 95% Calm Calm -- 29.58 in1001.7 mb - 0.00 in0.0 mm 0.22 in5.6 mm
10:30 AM 50.3°F10.2°C 48.6°F9.2°C 94% 5.8 mph W9.3 kmh W 10.4 mph16.7 kmh 29.58 in1001.7 mb - 0.00 in0.0 mm 0.22 in5.6 mm
10:40 AM 51.1°F10.6°C 48.6°F9.2°C 91% 6.9 mph W11.1 kmh W 16.1 mph25.9 kmh 29.58 in1001.7 mb - 0.00 in0.0 mm 0.22 in5.6 mm
10:50 AM 51.4°F10.8°C 48.6°F9.2°C 90% 8.1 mph WNW13.0 kmh WNW 15.0 mph24.1 kmh 29.56 in1001.0 mb - 0.00 in0.0 mm 0.22 in5.6 mm
11:00 AM 51.4°F10.8°C 48.3°F9.1°C 89% 3.5 mph WNW5.6 kmh WNW 5.8 mph9.3 kmh 29.57 in1001.4 mb - 0.00 in0.0 mm 0.22 in5.6 mm
11:10 AM 51.5°F10.8°C 48.4°F9.1°C 89% 3.5 mph SW5.6 kmh SW 13.8 mph22.2 kmh 29.58 in1001.7 mb - 0.00 in0.0 mm 0.22 in5.6 mm
11:20 AM 51.2°F10.7°C 48.1°F8.9°C 89% 3.5 mph W5.6 kmh W 6.9 mph11.1 kmh 29.59 in1002.0 mb - 0.00 in0.0 mm 0.22 in5.6 mm
11:30 AM 51.2°F10.7°C 47.8°F8.8°C 88% 5.8 mph W9.3 kmh W 9.2 mph14.8 kmh 29.59 in1002.0 mb - 0.00 in0.0 mm 0.22 in5.6 mm
11:40 AM 51.3°F10.7°C 47.9°F8.8°C 88% 6.9 mph W11.1 kmh W 11.5 mph18.5 kmh 29.58 in1001.7 mb - 0.00 in0.0 mm 0.22 in5.6 mm
11:50 AM 51.3°F10.7°C 47.8°F8.8°C 88% 6.9 mph W11.1 kmh W 13.8 mph22.2 kmh 29.56 in1001.0 mb - 0.00 in0.0 mm 0.22 in5.6 mm
12:00 PM 50.8°F10.4°C 48.0°F8.9°C 90% 6.9 mph W11.1 kmh W 13.8 mph22.2 kmh 29.57 in1001.4 mb - 0.00 in0.0 mm 0.22 in5.6 mm
12:10 PM 50.6°F10.3°C 48.1°F8.9°C 91% 8.1 mph W13.0 kmh W 9.2 mph14.8 kmh 29.56 in1001.0 mb - 0.00 in0.0 mm 0.22 in5.6 mm
12:20 PM 50.5°F10.3°C 48.0°F8.9°C 91% 6.9 mph WSW11.1 kmh WSW 13.8 mph22.2 kmh 29.55 in1000.7 mb - 0.00 in0.0 mm 0.22 in5.6 mm
12:30 PM 50.5°F10.3°C 48.0°F8.9°C 91% 9.2 mph W14.8 kmh W 16.1 mph25.9 kmh 29.56 in1001.0 mb - 0.00 in0.0 mm 0.22 in5.6 mm
12:40 PM 50.5°F10.3°C 48.0°F8.9°C 91% 6.9 mph W11.1 kmh W 12.7 mph20.4 kmh 29.56 in1001.0 mb - 0.00 in0.0 mm 0.22 in5.6 mm
12:50 PM 50.6°F10.3°C 48.1°F8.9°C 91% 6.9 mph WSW11.1 kmh WSW 13.8 mph22.2 kmh 29.56 in1001.0 mb - 0.00 in0.0 mm 0.22 in5.6 mm
01:00 PM 50.5°F10.3°C 48.0°F8.9°C 91% 5.8 mph WSW9.3 kmh WSW 15.0 mph24.1 kmh 29.56 in1001.0 mb - 0.00 in0.0 mm 0.22 in5.6 mm
01:10 PM 50.5°F10.3°C 47.6°F8.7°C 90% 6.9 mph W11.1 kmh W 12.7 mph20.4 kmh 29.56 in1001.0 mb - 0.00 in0.0 mm 0.22 in5.6 mm
01:20 PM 50.5°F10.3°C 47.7°F8.7°C 90% 10.4 mph W16.7 kmh W 13.8 mph22.2 kmh 29.55 in1000.7 mb - 0.00 in0.0 mm 0.22 in5.6 mm
01:30 PM 50.6°F10.3°C 47.8°F8.8°C 90% 6.9 mph W11.1 kmh W 11.5 mph18.5 kmh 29.55 in1000.7 mb - 0.00 in0.0 mm 0.22 in5.6 mm
01:40 PM 50.6°F10.3°C 47.8°F8.8°C 90% 3.5 mph SSW5.6 kmh SSW 6.9 mph11.1 kmh 29.53 in1000.0 mb - 0.00 in0.0 mm 0.22 in5.6 mm
01:50 PM 50.9°F10.5°C 48.1°F8.9°C 90% 6.9 mph W11.1 kmh W 11.5 mph18.5 kmh 29.53 in1000.0 mb - 0.00 in0.0 mm 0.22 in5.6 mm
02:00 PM 51.0°F10.6°C 48.2°F9.0°C 90% 5.8 mph WSW9.3 kmh WSW 8.1 mph13.0 kmh 29.52 in999.7 mb - 0.00 in0.0 mm 0.22 in5.6 mm
02:10 PM 51.2°F10.7°C 48.4°F9.1°C 90% 8.1 mph W13.0 kmh W 13.8 mph22.2 kmh 29.51 in999.3 mb - 0.00 in0.0 mm 0.22 in5.6 mm
02:20 PM 51.3°F10.7°C 48.4°F9.1°C 90% 8.1 mph SW13.0 kmh SW 12.7 mph20.4 kmh 29.49 in998.6 mb - 0.00 in0.0 mm 0.22 in5.6 mm
02:30 PM 51.1°F10.6°C 48.9°F9.4°C 92% 8.1 mph NW13.0 kmh NW 15.0 mph24.1 kmh 29.47 in998.0 mb - 0.00 in0.0 mm 0.22 in5.6 mm
02:40 PM 50.8°F10.4°C 48.8°F9.3°C 93% 8.1 mph W13.0 kmh W 15.0 mph24.1 kmh 29.46 in997.6 mb - 0.00 in0.0 mm 0.22 in5.6 mm
02:50 PM 50.5°F10.3°C 48.6°F9.2°C 93% 5.8 mph WSW9.3 kmh WSW 13.8 mph22.2 kmh 29.44 in997.0 mb - 0.00 in0.0 mm 0.22 in5.6 mm
03:00 PM 50.3°F10.2°C 48.4°F9.1°C 93% 4.6 mph W7.4 kmh W 6.9 mph11.1 kmh 29.42 in996.3 mb - 0.01 in0.3 mm 0.23 in5.8 mm
03:10 PM 50.1°F10.1°C 48.4°F9.1°C 94% 4.6 mph WNW7.4 kmh WNW 9.2 mph14.8 kmh 29.41 in995.9 mb - 0.01 in0.3 mm 0.23 in5.8 mm
03:20 PM 50.0°F10.0°C 48.4°F9.1°C 94% 8.1 mph SW13.0 kmh SW 13.8 mph22.2 kmh 29.40 in995.6 mb - 0.01 in0.3 mm 0.24 in6.1 mm
03:30 PM 49.5°F9.7°C 48.2°F9.0°C 95% 8.1 mph NW13.0 kmh NW 13.8 mph22.2 kmh 29.39 in995.3 mb - 0.00 in0.0 mm 0.24 in6.1 mm
03:40 PM 49.4°F9.7°C 48.0°F8.9°C 95% 10.4 mph WSW16.7 kmh WSW 25.3 mph40.7 kmh 29.38 in994.9 mb - 0.00 in0.0 mm 0.24 in6.1 mm
03:50 PM 49.7°F9.8°C 48.6°F9.2°C 96% 13.8 mph WSW22.2 kmh WSW 27.6 mph44.4 kmh 29.37 in994.6 mb - 0.00 in0.0 mm 0.24 in6.1 mm
04:00 PM 50.0°F10.0°C 48.9°F9.4°C 96% 13.8 mph SW22.2 kmh SW 23.0 mph37.0 kmh 29.34 in993.6 mb - 0.00 in0.0 mm 0.24 in6.1 mm
04:10 PM 50.2°F10.1°C 49.1°F9.5°C 96% 15.0 mph WSW24.1 kmh WSW 26.5 mph42.6 kmh 29.33 in993.2 mb - 0.01 in0.3 mm 0.25 in6.4 mm
04:20 PM 49.9°F9.9°C 48.5°F9.2°C 95% 13.8 mph WNW22.2 kmh WNW 21.9 mph35.2 kmh 29.32 in992.9 mb - 0.00 in0.0 mm 0.25 in6.4 mm
04:30 PM 49.7°F9.8°C 48.3°F9.1°C 95% 13.8 mph W22.2 kmh W 21.9 mph35.2 kmh 29.31 in992.6 mb - 0.00 in0.0 mm 0.25 in6.4 mm
04:40 PM 49.5°F9.7°C 48.1°F8.9°C 95% 13.8 mph SW22.2 kmh SW 21.9 mph35.2 kmh 29.29 in991.9 mb - 0.01 in0.3 mm 0.26 in6.6 mm
04:50 PM 49.5°F9.7°C 48.1°F8.9°C 95% 12.7 mph W20.4 kmh W 20.7 mph33.3 kmh 29.27 in991.2 mb - 0.01 in0.3 mm 0.27 in6.9 mm
05:00 PM 49.3°F9.6°C 48.2°F9.0°C 96% 11.5 mph WSW18.5 kmh WSW 21.9 mph35.2 kmh 29.25 in990.5 mb - 0.01 in0.3 mm 0.28 in7.1 mm
05:10 PM 49.7°F9.8°C 48.6°F9.2°C 96% 12.7 mph S20.4 kmh S 18.4 mph29.6 kmh 29.23 in989.8 mb - 0.01 in0.3 mm 0.29 in7.4 mm
05:20 PM 50.6°F10.3°C 49.5°F9.7°C 96% 11.5 mph WSW18.5 kmh WSW 21.9 mph35.2 kmh 29.21 in989.2 mb - 0.02 in0.5 mm 0.31 in7.9 mm
05:30 PM 51.5°F10.8°C 50.7°F10.4°C 97% 11.5 mph W18.5 kmh W 21.9 mph35.2 kmh 29.20 in988.8 mb - 0.01 in0.3 mm 0.32 in8.1 mm
05:40 PM 52.2°F11.2°C 51.4°F10.8°C 97% 15.0 mph WSW24.1 kmh WSW 27.6 mph44.4 kmh 29.18 in988.1 mb - 0.00 in0.0 mm 0.32 in8.1 mm
05:50 PM 52.5°F11.4°C 51.7°F10.9°C 97% 15.0 mph WSW24.1 kmh WSW 28.8 mph46.3 kmh 29.17 in987.8 mb - 0.01 in0.3 mm 0.33 in8.4 mm
06:00 PM 52.9°F11.6°C 52.1°F11.2°C 97% 18.4 mph W29.6 kmh W 25.3 mph40.7 kmh 29.16 in987.5 mb - 0.00 in0.0 mm 0.33 in8.4 mm
06:10 PM 53.0°F11.7°C 52.2°F11.2°C 97% 15.0 mph WSW24.1 kmh WSW 21.9 mph35.2 kmh 29.15 in987.1 mb - 0.00 in0.0 mm 0.33 in8.4 mm
06:20 PM 53.0°F11.7°C 52.2°F11.2°C 97% 15.0 mph NW24.1 kmh NW 25.3 mph40.7 kmh 29.15 in987.1 mb - 0.00 in0.0 mm 0.33 in8.4 mm
06:30 PM 53.1°F11.7°C 52.3°F11.3°C 97% 11.5 mph WSW18.5 kmh WSW 19.6 mph31.5 kmh 29.15 in987.1 mb - 0.00 in0.0 mm 0.33 in8.4 mm
06:40 PM 53.1°F11.7°C 52.3°F11.3°C 97% 11.5 mph WNW18.5 kmh WNW 21.9 mph35.2 kmh 29.16 in987.5 mb - 0.00 in0.0 mm 0.33 in8.4 mm
06:50 PM 51.0°F10.6°C 49.9°F9.9°C 96% 17.3 mph W27.8 kmh W 26.5 mph42.6 kmh 29.18 in988.1 mb - 0.00 in0.0 mm 0.33 in8.4 mm
07:00 PM 51.7°F10.9°C 50.6°F10.3°C 96% 15.0 mph W24.1 kmh W 21.9 mph35.2 kmh 29.18 in988.1 mb - 0.00 in0.0 mm 0.33 in8.4 mm
07:10 PM 52.5°F11.4°C 48.1°F8.9°C 85% 9.2 mph W14.8 kmh W 21.9 mph35.2 kmh 29.19 in988.5 mb - 0.00 in0.0 mm 0.33 in8.4 mm
07:20 PM 52.2°F11.2°C 47.5°F8.6°C 84% 11.5 mph WNW18.5 kmh WNW 20.7 mph33.3 kmh 29.20 in988.8 mb - 0.00 in0.0 mm 0.33 in8.4 mm
07:30 PM 51.5°F10.8°C 46.9°F8.3°C 84% 6.9 mph W11.1 kmh W 8.1 mph13.0 kmh 29.20 in988.8 mb - 0.00 in0.0 mm 0.33 in8.4 mm
07:40 PM 51.1°F10.6°C 45.8°F7.7°C 82% 10.4 mph WNW16.7 kmh WNW 16.1 mph25.9 kmh 29.20 in988.8 mb - 0.00 in0.0 mm 0.33 in8.4 mm
07:50 PM 50.8°F10.4°C 44.9°F7.2°C 80% 12.7 mph WNW20.4 kmh WNW 21.9 mph35.2 kmh 29.21 in989.2 mb - 0.00 in0.0 mm 0.33 in8.4 mm
08:00 PM 50.4°F10.2°C 44.8°F7.1°C 81% 11.5 mph W18.5 kmh W 18.4 mph29.6 kmh 29.21 in989.2 mb - 0.00 in0.0 mm 0.33 in8.4 mm
08:10 PM 50.2°F10.1°C 44.6°F7.0°C 81% 11.5 mph W18.5 kmh W 23.0 mph37.0 kmh 29.20 in988.8 mb - 0.00 in0.0 mm 0.33 in8.4 mm
08:20 PM 49.8°F9.9°C 44.5°F6.9°C 82% 10.4 mph W16.7 kmh W 12.7 mph20.4 kmh 29.21 in989.2 mb - 0.00 in0.0 mm 0.33 in8.4 mm
08:30 PM 49.5°F9.7°C 44.2°F6.8°C 82% 11.5 mph W18.5 kmh W 16.1 mph25.9 kmh 29.21 in989.2 mb - 0.00 in0.0 mm 0.33 in8.4 mm
08:40 PM 49.4°F9.7°C 43.8°F6.6°C 81% 11.5 mph W18.5 kmh W 25.3 mph40.7 kmh 29.20 in988.8 mb - 0.00 in0.0 mm 0.33 in8.4 mm
08:50 PM 49.9°F9.9°C 43.0°F6.1°C 77% 15.0 mph WNW24.1 kmh WNW 21.9 mph35.2 kmh 29.20 in988.8 mb - 0.00 in0.0 mm 0.33 in8.4 mm
09:00 PM 50.0°F10.0°C 42.7°F5.9°C 76% 15.0 mph W24.1 kmh W 25.3 mph40.7 kmh 29.20 in988.8 mb - 0.00 in0.0 mm 0.33 in8.4 mm
09:10 PM 49.6°F9.8°C 43.0°F6.1°C 78% 12.7 mph WNW20.4 kmh WNW 18.4 mph29.6 kmh 29.20 in988.8 mb - 0.00 in0.0 mm 0.33 in8.4 mm
09:20 PM 49.8°F9.9°C 42.9°F6.1°C 77% 10.4 mph W16.7 kmh W 26.5 mph42.6 kmh 29.21 in989.2 mb - 0.00 in0.0 mm 0.33 in8.4 mm
09:30 PM 49.3°F9.6°C 42.8°F6.0°C 78% 12.7 mph W20.4 kmh W 25.3 mph40.7 kmh 29.20 in988.8 mb - 0.00 in0.0 mm 0.33 in8.4 mm
09:40 PM 48.9°F9.4°C 42.7°F5.9°C 79% 10.4 mph W16.7 kmh W 15.0 mph24.1 kmh 29.20 in988.8 mb - 0.00 in0.0 mm 0.33 in8.4 mm
09:50 PM 48.4°F9.1°C 43.2°F6.2°C 82% 8.1 mph W13.0 kmh W 13.8 mph22.2 kmh 29.21 in989.2 mb - 0.00 in0.0 mm 0.33 in8.4 mm
10:00 PM 48.0°F8.9°C 43.1°F6.2°C 83% 9.2 mph WSW14.8 kmh WSW 16.1 mph25.9 kmh 29.20 in988.8 mb - 0.00 in0.0 mm 0.33 in8.4 mm
10:10 PM 48.5°F9.2°C 42.3°F5.7°C 79% 11.5 mph W18.5 kmh W 16.1 mph25.9 kmh 29.20 in988.8 mb - 0.00 in0.0 mm 0.33 in8.4 mm
10:20 PM 48.6°F9.2°C 41.7°F5.4°C 77% 13.8 mph W22.2 kmh W 16.1 mph25.9 kmh 29.20 in988.8 mb - 0.00 in0.0 mm 0.33 in8.4 mm
10:30 PM 48.5°F9.2°C 41.6°F5.3°C 77% 15.0 mph WNW24.1 kmh WNW 23.0 mph37.0 kmh 29.20 in988.8 mb - 0.00 in0.0 mm 0.33 in8.4 mm
10:40 PM 48.1°F8.9°C 41.6°F5.3°C 78% 13.8 mph W22.2 kmh W 20.7 mph33.3 kmh 29.20 in988.8 mb - 0.00 in0.0 mm 0.33 in8.4 mm
10:50 PM 47.9°F8.8°C 41.7°F5.4°C 79% 10.4 mph WNW16.7 kmh WNW 11.5 mph18.5 kmh 29.20 in988.8 mb - 0.00 in0.0 mm 0.33 in8.4 mm
11:00 PM 47.7°F8.7°C 41.5°F5.3°C 79% 12.7 mph WNW20.4 kmh WNW 20.7 mph33.3 kmh 29.21 in989.2 mb - 0.00 in0.0 mm 0.33 in8.4 mm
11:10 PM 47.7°F8.7°C 41.5°F5.3°C 79% 13.8 mph W22.2 kmh W 27.6 mph44.4 kmh 29.21 in989.2 mb - 0.00 in0.0 mm 0.33 in8.4 mm
11:20 PM 47.4°F8.6°C 41.5°F5.3°C 80% 9.2 mph W14.8 kmh W 16.1 mph25.9 kmh 29.21 in989.2 mb - 0.00 in0.0 mm 0.33 in8.4 mm
11:30 PM 46.8°F8.2°C 41.6°F5.3°C 82% 8.1 mph WNW13.0 kmh WNW 15.0 mph24.1 kmh 29.21 in989.2 mb - 0.00 in0.0 mm 0.33 in8.4 mm
11:40 PM 46.7°F8.2°C 41.2°F5.1°C 81% 15.0 mph W24.1 kmh W 21.9 mph35.2 kmh 29.22 in989.5 mb - 0.00 in0.0 mm 0.33 in8.4 mm
11:50 PM 46.6°F8.1°C 41.1°F5.1°C 81% 16.1 mph W25.9 kmh W 25.3 mph40.7 kmh 29.23 in989.8 mb - 0.00 in0.0 mm 0.33 in8.4 mm